KSLO/SLO METAR and TAF weather

Enter ICAO airport designator
Station Type Date Time Source
KSLO METAR 2022/10/29 14:50 UTC NOAA

KSLO 291450Z AUTO 00000KT 10SM CLR 12/07 A3031 RMK AO2 T01230068


Station Type Date Time Source
KSLO Decoded METAR 2022/10/29 14:50 UTC NOAA

Salem, Salem-Leckrone Airport, IL, United States (KSLO) 38-38-34N 088-57-51W 174M
Oct 29, 2022 - 10:50 AM EDT / 2022.10.29 1450 UTC
Wind: Calm:0
Visibility: 10 mile(s):0
Sky conditions: clear
Temperature: 54.1 F (12.3 C)
Dew Point: 44.2 F (6.8 C)
Relative Humidity: 69%
Pressure (altimeter): 30.31 in. Hg (1026 hPa)
ob: KSLO 291450Z AUTO 00000KT 10SM CLR 12/07 A3031 RMK AO2 T01230068
cycle: 15

Station Type Date Time Source
KSLO TAF UTC NOAA

Error!

Example: see airport list